Time;durP1;ratioP1;P1;durP2;ratioP2;P2;SDS_P1;SDS_P2;PMS_P1;PMS_P2;Temp;Humidity;BMP_temperature;BMP_pressure;BME280_temperature;BME280_humidity;BME280_pressure;Samples;Min_cycle;Max_cycle;Signal;HPM_P1;HPM_P2
2021/03/18 00:00:51;;;;;;;17.90;6.93;;;1.30;99.90;;;;;;5069411;28;20013;-58
2021/03/18 00:03:19;;;;;;;23.75;6.55;;;1.30;99.90;;;;;;5068336;28;20059;-55
2021/03/18 00:05:46;;;;;;;13.80;5.80;;;1.40;99.90;;;;;;5065801;28;20021;-54
2021/03/18 00:08:11;;;;;;;10.73;5.07;;;1.40;99.90;;;;;;5068781;28;20025;-53
2021/03/18 00:10:37;;;;;;;16.45;6.18;;;1.40;99.90;;;;;;5069225;28;20055;-57
2021/03/18 00:13:05;;;;;;;11.77;6.30;;;1.40;99.90;;;;;;5069916;28;20549;-57
2021/03/18 00:15:31;;;;;;;21.55;6.50;;;1.30;99.90;;;;;;5069715;28;20059;-55
2021/03/18 00:17:57;;;;;;;20.48;7.45;;;1.30;99.90;;;;;;5063857;28;20025;-55
2021/03/18 00:20:22;;;;;;;23.75;7.00;;;1.20;99.90;;;;;;5068608;28;20394;-53
2021/03/18 00:22:48;;;;;;;21.95;7.18;;;1.20;99.90;;;;;;5066022;28;20475;-56
2021/03/18 00:25:16;;;;;;;22.67;6.90;;;1.20;99.90;;;;;;5066659;28;20020;-54
2021/03/18 00:27:43;;;;;;;26.17;7.45;;;1.10;99.90;;;;;;5069084;28;20039;-55
2021/03/18 00:30:11;;;;;;;15.23;7.80;;;1.10;99.90;;;;;;5069589;28;20418;-58
2021/03/18 00:32:39;;;;;;;17.55;7.55;;;1.20;99.90;;;;;;5068516;28;20443;-55
2021/03/18 00:35:06;;;;;;;18.63;7.50;;;1.10;99.90;;;;;;5068236;28;20024;-54
2021/03/18 00:37:36;;;;;;;14.70;7.65;;;1.00;99.90;;;;;;5069503;28;20383;-56
2021/03/18 00:40:06;;;;;;;19.02;7.40;;;1.00;99.90;;;;;;5067567;28;20020;-56
2021/03/18 00:42:32;;;;;;;21.25;7.78;;;0.90;99.90;;;;;;5068583;28;20047;-56
2021/03/18 00:44:57;;;;;;;19.27;7.53;;;0.90;99.90;;;;;;5069559;28;20036;-57
2021/03/18 00:47:23;;;;;;;17.70;7.55;;;0.80;99.90;;;;;;5069011;28;20086;-57
2021/03/18 00:49:48;;;;;;;24.02;7.95;;;0.80;99.90;;;;;;5069091;28;20029;-57
2021/03/18 00:52:14;;;;;;;25.38;8.85;;;0.80;99.90;;;;;;5061425;28;20029;-56
2021/03/18 00:54:40;;;;;;;23.80;9.27;;;0.80;99.90;;;;;;5069424;28;20047;-55
2021/03/18 00:57:05;;;;;;;18.52;9.23;;;0.80;99.90;;;;;;5064553;28;20111;-57
2021/03/18 00:59:31;;;;;;;19.90;9.25;;;0.70;99.90;;;;;;5069289;28;20058;-56
2021/03/18 01:01:56;;;;;;;27.10;9.68;;;0.70;99.90;;;;;;5068931;28;20076;-56
2021/03/18 01:04:22;;;;;;;24.85;9.93;;;0.80;99.90;;;;;;5069119;28;20025;-57
2021/03/18 01:06:48;;;;;;;22.08;9.90;;;0.90;99.90;;;;;;5068535;28;20025;-57
2021/03/18 01:09:14;;;;;;;26.83;10.60;;;0.90;99.90;;;;;;5065964;28;20036;-57
2021/03/18 01:11:40;;;;;;;26.80;9.13;;;0.90;99.90;;;;;;5072097;28;20110;-58
2021/03/18 01:14:08;;;;;;;23.02;9.68;;;0.90;99.90;;;;;;5071557;28;20066;-57
2021/03/18 01:16:47;;;;;;;22.05;10.10;;;0.90;99.90;;;;;;5066898;28;20040;-57
2021/03/18 01:19:14;;;;;;;23.88;9.90;;;0.90;99.90;;;;;;5066647;28;20509;-55
2021/03/18 01:21:43;;;;;;;21.48;8.93;;;0.90;99.90;;;;;;5072960;28;20103;-56
2021/03/18 01:24:10;;;;;;;18.85;9.32;;;0.80;99.90;;;;;;5072319;28;20085;-58
2021/03/18 01:26:36;;;;;;;20.17;9.85;;;0.70;99.90;;;;;;5072785;28;20394;-58
2021/03/18 01:29:02;;;;;;;24.48;10.25;;;0.60;99.90;;;;;;5071707;28;20032;-58
2021/03/18 01:31:28;;;;;;;26.95;12.65;;;0.60;99.90;;;;;;5072492;28;20030;-57
2021/03/18 01:33:54;;;;;;;24.15;10.98;;;0.60;99.90;;;;;;5070841;28;20100;-58
2021/03/18 01:36:20;;;;;;;27.00;11.77;;;0.60;99.90;;;;;;5072796;28;20029;-57
2021/03/18 01:38:47;;;;;;;23.00;10.20;;;0.50;99.90;;;;;;5071699;28;20060;-53
2021/03/18 01:41:13;;;;;;;28.40;9.70;;;0.50;99.90;;;;;;5070074;28;20025;-53
2021/03/18 01:43:40;;;;;;;23.40;9.88;;;0.50;99.90;;;;;;5072808;28;20029;-54
2021/03/18 01:46:06;;;;;;;27.98;11.38;;;0.60;99.90;;;;;;5068992;28;20017;-54
2021/03/18 01:48:31;;;;;;;25.88;11.27;;;0.60;99.90;;;;;;5070918;28;20082;-53
2021/03/18 01:50:58;;;;;;;25.77;11.05;;;0.60;99.90;;;;;;5068669;28;20029;-53
2021/03/18 01:53:25;;;;;;;26.85;10.45;;;0.70;99.90;;;;;;5068744;28;20028;-55
2021/03/18 01:55:53;;;;;;;23.23;11.82;;;0.70;99.90;;;;;;5066930;28;20039;-57
2021/03/18 01:58:19;;;;;;;22.45;10.75;;;0.70;99.90;;;;;;5072003;28;20082;-54
2021/03/18 02:00:48;;;;;;;25.25;10.30;;;0.70;99.90;;;;;;5070874;28;20024;-56
2021/03/18 02:03:14;;;;;;;22.23;9.60;;;0.70;99.90;;;;;;5072515;28;20025;-54
2021/03/18 02:05:42;;;;;;;29.05;12.23;;;0.70;99.90;;;;;;5070911;28;20374;-55
2021/03/18 02:08:08;;;;;;;30.48;12.02;;;0.80;99.90;;;;;;5070703;28;20486;-54
2021/03/18 02:10:36;;;;;;;36.55;11.68;;;0.80;99.90;;;;;;5068042;28;20079;-55
2021/03/18 02:13:04;;;;;;;26.30;11.70;;;0.80;99.90;;;;;;5071082;28;20421;-57
2021/03/18 02:15:34;;;;;;;31.65;13.30;;;0.80;99.90;;;;;;5071140;28;20032;-55
2021/03/18 02:18:28;;;;;;;24.80;11.25;;;0.80;99.90;;;;;;5068154;28;20025;-56
2021/03/18 02:21:12;;;;;;;22.50;11.07;;;0.90;99.90;;;;;;5069705;28;20094;-53
2021/03/18 02:23:55;;;;;;;24.27;10.83;;;0.80;99.90;;;;;;5065918;28;20025;-56
2021/03/18 02:26:45;;;;;;;29.40;11.25;;;0.90;99.90;;;;;;5071783;28;20398;-53
2021/03/18 02:29:48;;;;;;;25.88;12.45;;;0.90;99.90;;;;;;5071559;28;20024;-54
2021/03/18 02:32:43;;;;;;;32.80;12.30;;;1.00;99.90;;;;;;5071374;28;20802;-53
2021/03/18 02:35:27;;;;;;;27.55;12.85;;;1.00;99.90;;;;;;5068660;28;20054;-53
2021/03/18 02:38:01;;;;;;;33.83;13.13;;;1.00;99.90;;;;;;5070794;28;20071;-55
2021/03/18 02:40:27;;;;;;;;;;;1.00;99.90;;;;;;5071771;28;20106;-55
2021/03/18 02:42:58;;;;;;;31.25;13.63;;;1.00;99.90;;;;;;5070974;28;20294;-55
2021/03/18 02:45:32;;;;;;;31.80;13.95;;;1.00;99.90;;;;;;5071309;28;20500;-56
2021/03/18 02:47:59;;;;;;;26.58;14.60;;;0.90;99.90;;;;;;5070601;28;20393;-57
2021/03/18 02:50:28;;;;;;;30.65;14.82;;;0.80;99.90;;;;;;5070765;28;20055;-57
2021/03/18 02:52:55;;;;;;;36.28;16.73;;;0.80;99.90;;;;;;5070661;28;20021;-56
2021/03/18 02:55:22;;;;;;;38.33;18.60;;;0.70;99.90;;;;;;5070711;28;20032;-57
2021/03/18 02:57:49;;;;;;;33.95;17.00;;;0.80;99.90;;;;;;5066184;28;20471;-53
2021/03/18 03:00:18;;;;;;;37.53;15.35;;;0.80;99.90;;;;;;5071052;28;20032;-56
2021/03/18 03:02:43;;;;;;;43.15;17.67;;;0.80;99.90;;;;;;5067247;28;20024;-57
2021/03/18 03:05:10;;;;;;;43.60;18.33;;;0.80;99.90;;;;;;5070925;28;20039;-57
2021/03/18 03:07:37;;;;;;;32.80;16.35;;;0.80;99.90;;;;;;5069523;28;20032;-56
2021/03/18 03:10:06;;;;;;;37.78;16.50;;;0.90;99.90;;;;;;5070933;28;20110;-57
2021/03/18 03:12:33;;;;;;;40.13;17.88;;;0.80;99.90;;;;;;5066879;28;20115;-56
2021/03/18 03:15:00;;;;;;;39.65;18.40;;;0.90;99.90;;;;;;5070173;28;20032;-55
2021/03/18 03:17:27;;;;;;;39.63;17.23;;;1.00;99.90;;;;;;5067772;28;20071;-57
2021/03/18 03:19:56;;;;;;;36.00;16.92;;;1.10;99.90;;;;;;5070254;28;20024;-57
2021/03/18 03:22:23;;;;;;;42.55;19.80;;;1.20;99.90;;;;;;5068327;28;20413;-57
2021/03/18 03:24:50;;;;;;;40.25;19.00;;;1.20;99.90;;;;;;5069749;28;20028;-55
2021/03/18 03:27:16;;;;;;;40.00;19.50;;;1.20;99.90;;;;;;5063994;28;20032;-57
2021/03/18 03:29:44;;;;;;;44.22;21.13;;;1.30;99.90;;;;;;5070221;28;20513;-57
2021/03/18 03:32:11;;;;;;;43.08;19.52;;;1.30;99.90;;;;;;5070109;28;20510;-57
2021/03/18 03:34:39;;;;;;;41.25;19.80;;;1.40;99.90;;;;;;5068589;28;20024;-57
2021/03/18 03:37:05;;;;;;;48.25;20.60;;;1.30;99.90;;;;;;5069228;28;20041;-55
2021/03/18 03:39:32;;;;;;;41.90;19.33;;;1.30;99.90;;;;;;5070024;28;20335;-55
2021/03/18 03:41:59;;;;;;;31.52;18.52;;;1.30;99.90;;;;;;5064686;28;20036;-58
2021/03/18 03:44:24;;;;;;;42.70;21.38;;;1.30;99.90;;;;;;5067720;28;20085;-55
2021/03/18 03:46:50;;;;;;;38.80;21.80;;;1.40;99.90;;;;;;5066761;28;20028;-57
2021/03/18 03:49:16;;;;;;;45.75;20.98;;;1.50;99.90;;;;;;5069497;28;20024;-55
2021/03/18 03:52:06;;;;;;;43.83;20.52;;;1.50;99.90;;;;;;5069585;28;20025;-57
2021/03/18 03:54:35;;;;;;;38.08;20.13;;;1.60;99.90;;;;;;5048011;28;20044;-57
2021/03/18 03:57:18;;;;;;;35.47;18.95;;;1.60;99.90;;;;;;5063626;28;20117;-58
2021/03/18 03:59:45;;;;;;;43.78;20.00;;;1.60;99.90;;;;;;5068097;28;20044;-54
2021/03/18 04:02:12;;;;;;;40.08;20.50;;;1.50;99.90;;;;;;5069725;28;20029;-55
2021/03/18 04:04:46;;;;;;;34.65;19.73;;;1.50;99.90;;;;;;5069100;28;20029;-56
2021/03/18 04:07:27;;;;;;;46.53;22.77;;;1.40;99.90;;;;;;5069106;28;20020;-56
2021/03/18 04:09:53;;;;;;;38.00;20.75;;;1.30;99.90;;;;;;5068514;28;20020;-56
2021/03/18 04:12:23;;;;;;;43.95;21.80;;;1.30;99.90;;;;;;5068101;28;20539;-57
2021/03/18 04:15:03;;;;;;;45.78;22.92;;;1.30;99.90;;;;;;5069520;28;20032;-57
2021/03/18 04:17:31;;;;;;;41.90;21.98;;;1.30;99.90;;;;;;5062999;28;20035;-55
2021/03/18 04:20:00;;;;;;;45.80;23.52;;;1.30;99.90;;;;;;5060718;28;20382;-57
2021/03/18 04:22:28;;;;;;;45.08;23.92;;;1.30;99.90;;;;;;5062396;28;20100;-57
2021/03/18 04:24:54;;;;;;;41.33;24.65;;;1.30;99.90;;;;;;5062245;28;20028;-56
2021/03/18 04:27:20;;;;;;;46.55;22.35;;;1.30;99.90;;;;;;5062190;28;21175;-57
2021/03/18 04:29:46;;;;;;;47.55;23.77;;;1.30;99.90;;;;;;5062362;28;20108;-58
2021/03/18 04:32:13;;;;;;;49.88;23.35;;;1.20;99.90;;;;;;5064175;28;20553;-56
2021/03/18 04:34:40;;;;;;;46.03;23.33;;;1.20;99.90;;;;;;5061771;28;20033;-56
2021/03/18 04:37:08;;;;;;;40.20;23.50;;;1.20;99.90;;;;;;5061293;28;20047;-55
2021/03/18 04:39:38;;;;;;;49.03;26.83;;;1.20;99.90;;;;;;5061037;28;20021;-57
2021/03/18 04:42:06;;;;;;;45.58;23.15;;;1.20;99.90;;;;;;5063243;28;20555;-57
2021/03/18 04:44:33;;;;;;;50.88;25.88;;;1.20;99.90;;;;;;5070004;28;20025;-57
2021/03/18 04:47:01;;;;;;;47.97;25.00;;;1.20;99.90;;;;;;5068368;28;20103;-58
2021/03/18 04:49:27;;;;;;;52.25;26.88;;;1.30;99.90;;;;;;5070032;28;20112;-57
2021/03/18 04:51:54;;;;;;;47.53;24.33;;;1.30;99.90;;;;;;5066119;28;20516;-57
2021/03/18 04:54:20;;;;;;;46.38;25.75;;;1.40;99.90;;;;;;5076140;28;20520;-58
2021/03/18 04:56:47;;;;;;;51.28;25.23;;;1.50;99.90;;;;;;5069989;28;20048;-54
2021/03/18 04:59:15;;;;;;;47.38;24.88;;;1.60;99.90;;;;;;5075611;28;20142;-52
2021/03/18 05:01:48;;;;;;;39.85;24.08;;;1.60;99.90;;;;;;5076001;28;20075;-57
2021/03/18 05:04:17;;;;;;;51.25;24.48;;;1.70;99.90;;;;;;5074541;28;20036;-54
2021/03/18 05:06:50;;;;;;;43.85;25.27;;;1.70;99.90;;;;;;5073831;28;20024;-54
2021/03/18 05:09:17;;;;;;;34.77;21.47;;;1.70;99.90;;;;;;5075642;28;20036;-54
2021/03/18 05:11:44;;;;;;;36.78;21.67;;;1.80;99.90;;;;;;5075890;28;20096;-54
2021/03/18 05:14:10;;;;;;;43.90;23.77;;;1.90;99.90;;;;;;5074864;28;20033;-53
2021/03/18 05:16:37;;;;;;;43.85;23.15;;;1.90;99.90;;;;;;5068966;28;20070;-54
2021/03/18 05:19:06;;;;;;;41.42;22.77;;;1.90;99.90;;;;;;5075392;28;20048;-54
2021/03/18 05:21:32;;;;;;;44.40;21.80;;;1.90;99.90;;;;;;5073246;28;20050;-52
2021/03/18 05:24:00;;;;;;;36.70;21.92;;;1.90;99.90;;;;;;5075444;28;20024;-57
2021/03/18 05:26:25;;;;;;;37.13;21.15;;;2.00;99.90;;;;;;5075664;28;20028;-57
2021/03/18 05:28:51;;;;;;;36.50;20.55;;;2.00;99.90;;;;;;5074401;28;20025;-56
2021/03/18 05:31:17;;;;;;;34.33;21.13;;;2.10;99.90;;;;;;5071945;28;20107;-53
2021/03/18 05:33:42;;;;;;;35.83;21.20;;;2.20;99.90;;;;;;5073073;28;20032;-55
2021/03/18 05:36:08;;;;;;;39.17;21.17;;;2.20;99.90;;;;;;5072448;28;20404;-54
2021/03/18 05:38:33;;;;;;;42.35;21.55;;;2.20;99.90;;;;;;5073814;28;20039;-53
2021/03/18 05:40:59;;;;;;;35.47;21.38;;;2.20;99.90;;;;;;5070284;28;20052;-54
2021/03/18 05:43:26;;;;;;;42.15;22.10;;;2.20;99.90;;;;;;5075019;28;20031;-55
2021/03/18 05:45:52;;;;;;;36.28;20.58;;;2.20;99.90;;;;;;5072355;28;20052;-57
2021/03/18 05:48:22;;;;;;;39.42;21.50;;;2.20;99.90;;;;;;5075471;28;20099;-56
2021/03/18 05:50:48;;;;;;;36.92;20.73;;;2.20;99.90;;;;;;5071782;28;20029;-53
2021/03/18 05:53:17;;;;;;;44.25;22.50;;;2.20;99.90;;;;;;5074862;28;20028;-53
2021/03/18 05:55:42;;;;;;;40.47;20.85;;;2.20;99.90;;;;;;5068297;28;20029;-57
2021/03/18 05:58:11;;;;;;;43.60;22.33;;;2.30;99.90;;;;;;5071703;28;20548;-54
2021/03/18 06:00:37;;;;;;;41.08;21.13;;;2.30;99.90;;;;;;5068873;28;20096;-57
2021/03/18 06:03:03;;;;;;;38.90;20.65;;;2.30;99.90;;;;;;5067762;28;20062;-57
2021/03/18 06:05:28;;;;;;;36.22;20.52;;;2.40;99.90;;;;;;5071050;28;20449;-57
2021/03/18 06:07:54;;;;;;;35.35;20.17;;;2.40;99.90;;;;;;5069838;28;20024;-53
2021/03/18 06:10:22;;;;;;;41.00;18.75;;;2.50;99.90;;;;;;5065144;28;20467;-56
2021/03/18 06:12:56;;;;;;;33.53;20.23;;;2.50;99.90;;;;;;5066625;28;20030;-55
2021/03/18 06:15:23;;;;;;;36.88;20.98;;;2.50;99.90;;;;;;5071098;28;20116;-56
2021/03/18 06:17:51;;;;;;;39.10;20.70;;;2.50;99.90;;;;;;5069145;28;20021;-60
2021/03/18 06:20:22;;;;;;;39.85;20.63;;;2.50;99.90;;;;;;5065066;28;20033;-59
2021/03/18 06:22:49;;;;;;;38.10;22.08;;;2.50;99.90;;;;;;5070326;28;20106;-59
2021/03/18 06:25:21;;;;;;;39.85;21.17;;;2.50;99.90;;;;;;5062628;28;20537;-59
2021/03/18 06:27:47;;;;;;;44.47;21.55;;;2.50;99.90;;;;;;5066854;28;20218;-59
2021/03/18 06:30:14;;;;;;;36.72;19.63;;;2.60;99.90;;;;;;5070140;28;20041;-59
2021/03/18 06:32:39;;;;;;;36.45;20.38;;;2.60;99.90;;;;;;5063660;28;20032;-60
2021/03/18 06:35:06;;;;;;;40.22;20.27;;;2.70;99.90;;;;;;5062879;28;20371;-60
2021/03/18 06:37:34;;;;;;;34.15;18.83;;;2.70;99.90;;;;;;5067398;28;20036;-59
2021/03/18 06:40:05;;;;;;;35.97;19.42;;;2.70;99.90;;;;;;5067278;28;20020;-60
2021/03/18 06:42:35;;;;;;;42.03;21.05;;;2.70;99.90;;;;;;5071125;28;20479;-60
2021/03/18 06:45:08;;;;;;;41.28;22.80;;;2.70;99.90;;;;;;5066077;28;20025;-59
2021/03/18 06:47:49;;;;;;;42.05;22.42;;;2.70;99.90;;;;;;5067419;28;20079;-60
2021/03/18 06:50:30;;;;;;;47.75;21.50;;;2.70;99.90;;;;;;5068694;28;20487;-60
2021/03/18 06:52:55;;;;;;;51.75;23.92;;;2.70;99.90;;;;;;5066033;28;20078;-59
2021/03/18 06:55:29;;;;;;;39.28;24.10;;;2.70;99.90;;;;;;5064018;28;20032;-60
2021/03/18 06:58:33;;;;;;;48.30;24.50;;;2.70;99.90;;;;;;5063953;28;20376;-60
2021/03/18 07:01:04;;;;;;;44.80;24.52;;;2.80;99.90;;;;;;5117627;22;20043;-62
2021/03/18 07:03:35;;;;;;;44.65;24.45;;;2.80;99.90;;;;;;5111257;27;20039;-62
2021/03/18 07:06:03;;;;;;;46.75;25.88;;;2.90;99.90;;;;;;5112900;27;20027;-61
2021/03/18 07:08:32;;;;;;;46.33;26.65;;;2.90;99.90;;;;;;5120426;27;20027;-62
2021/03/18 07:10:59;;;;;;;53.00;27.58;;;3.00;99.90;;;;;;5099709;28;20043;-62
2021/03/18 07:13:30;;;;;;;50.85;25.55;;;3.10;99.90;;;;;;5106588;28;20532;-62
2021/03/18 07:15:58;;;;;;;52.72;27.30;;;3.10;99.90;;;;;;5099908;28;20042;-62
2021/03/18 07:18:25;;;;;;;48.72;27.30;;;3.10;99.90;;;;;;5104481;28;20133;-62
2021/03/18 07:20:59;;;;;;;54.85;26.90;;;3.30;99.90;;;;;;5108051;28;20094;-62
2021/03/18 07:23:32;;;;;;;;;;;3.20;99.90;;;;;;5102800;28;20031;-62
2021/03/18 07:25:57;;;;;;;58.60;27.45;;;3.30;99.90;;;;;;5096953;28;20003;-61
2021/03/18 07:28:24;;;;;;;61.50;31.55;;;3.40;99.90;;;;;;5104281;28;20107;-61
2021/03/18 07:30:51;;;;;;;70.63;34.67;;;3.50;99.90;;;;;;5110116;28;20445;-60
2021/03/18 07:33:19;;;;;;;86.18;38.67;;;3.40;99.90;;;;;;5096316;28;20063;-62
2021/03/18 07:35:45;;;;;;;84.65;36.53;;;3.40;99.90;;;;;;5100508;28;20558;-61
2021/03/18 07:38:11;;;;;;;89.65;40.28;;;3.50;99.90;;;;;;5104743;28;20067;-61
2021/03/18 07:40:36;;;;;;;100.05;44.13;;;3.60;99.90;;;;;;5103201;28;20031;-61
2021/03/18 07:43:02;;;;;;;112.03;45.75;;;3.60;99.90;;;;;;5104205;28;20481;-61
2021/03/18 07:45:28;;;;;;;101.88;43.75;;;3.70;99.90;;;;;;5097730;28;20880;-61
2021/03/18 07:47:55;;;;;;;111.97;48.17;;;3.70;99.90;;;;;;5094451;28;20119;-62
2021/03/18 07:50:31;;;;;;;107.30;47.53;;;3.80;99.90;;;;;;5097776;28;20028;-62
2021/03/18 07:52:58;;;;;;;126.80;52.30;;;3.90;99.90;;;;;;5100459;28;20039;-61
2021/03/18 07:55:25;;;;;;;104.07;49.03;;;3.80;99.90;;;;;;5106100;28;20431;-62
2021/03/18 07:57:51;;;;;;;110.40;51.08;;;3.70;99.90;;;;;;5097166;28;20023;-61
2021/03/18 08:00:18;;;;;;;116.63;52.70;;;3.70;99.90;;;;;;5101490;28;20070;-62
2021/03/18 08:02:44;;;;;;;117.85;50.75;;;3.80;99.90;;;;;;5097174;28;20023;-61
2021/03/18 08:05:10;;;;;;;124.90;53.80;;;3.80;99.90;;;;;;5108257;28;20043;-61
2021/03/18 08:07:47;;;;;;;112.57;51.63;;;3.70;99.90;;;;;;5095601;27;20111;-61
2021/03/18 08:10:21;;;;;;;111.93;49.47;;;3.80;99.90;;;;;;5099565;28;20034;-62
2021/03/18 08:12:49;;;;;;;102.10;50.85;;;3.70;99.90;;;;;;5100754;28;20424;-62
2021/03/18 08:15:29;;;;;;;92.93;45.67;;;3.80;99.90;;;;;;5101448;28;20043;-60
2021/03/18 08:18:14;;;;;;;125.03;51.85;;;3.80;99.90;;;;;;5098667;28;20055;-61
2021/03/18 08:20:40;;;;;;;117.82;52.05;;;3.90;99.90;;;;;;5099718;28;20028;-60
2021/03/18 08:23:27;;;;;;;113.50;48.92;;;3.90;99.90;;;;;;5103031;27;20099;-62
2021/03/18 08:25:55;;;;;;;111.22;47.22;;;3.90;99.90;;;;;;5097746;28;20431;-62
2021/03/18 08:28:41;;;;;;;119.63;47.58;;;4.00;99.90;;;;;;5098504;28;20433;-61
2021/03/18 08:31:11;;;;;;;120.15;48.78;;;4.00;99.90;;;;;;5107229;27;20083;-60
2021/03/18 08:33:46;;;;;;;108.38;49.10;;;4.20;99.90;;;;;;5105070;28;20044;-61
2021/03/18 08:36:25;;;;;;;107.35;46.97;;;4.20;99.90;;;;;;5101989;28;20039;-62
2021/03/18 08:38:54;;;;;;;105.45;49.80;;;4.20;99.90;;;;;;5103363;28;20028;-62
2021/03/18 08:41:50;;;;;;;103.07;50.05;;;4.10;99.90;;;;;;5102238;28;20027;-62
2021/03/18 08:44:23;;;;;;;102.70;48.95;;;4.30;99.90;;;;;;5097288;28;20111;-61
2021/03/18 08:47:03;;;;;;;109.45;47.45;;;4.30;99.90;;;;;;5110052;28;20026;-62
2021/03/18 08:49:38;;;;;;;108.20;49.88;;;4.30;99.90;;;;;;5100420;28;20027;-62
2021/03/18 08:52:12;;;;;;;108.35;49.95;;;4.20;99.90;;;;;;5102841;28;20015;-62
2021/03/18 08:54:40;;;;;;;99.97;47.20;;;4.40;99.90;;;;;;5081890;28;20034;-62
2021/03/18 08:57:07;;;;;;;110.68;49.78;;;4.50;99.90;;;;;;5101114;28;20063;-61
2021/03/18 08:59:34;;;;;;;112.70;54.60;;;4.50;99.90;;;;;;5101338;28;20081;-60
2021/03/18 09:02:10;;;;;;;121.13;54.60;;;4.50;99.90;;;;;;5103044;28;20439;-62
2021/03/18 09:04:41;;;;;;;116.15;53.97;;;4.50;99.90;;;;;;5098959;28;20141;-62
2021/03/18 09:07:08;;;;;;;113.15;52.80;;;4.30;99.90;;;;;;5104264;28;20024;-61
2021/03/18 09:09:34;;;;;;;113.10;52.03;;;4.40;99.90;;;;;;5105459;28;20019;-60
2021/03/18 09:12:01;;;;;;;118.45;51.70;;;4.50;99.90;;;;;;5106854;28;20074;-60
2021/03/18 09:14:27;;;;;;;112.65;54.08;;;4.70;99.90;;;;;;5101209;28;20023;-62
2021/03/18 09:17:06;;;;;;;123.70;54.55;;;4.60;99.90;;;;;;5102042;28;20024;-61
2021/03/18 09:19:31;;;;;;;118.22;56.33;;;4.70;99.90;;;;;;5097872;28;20031;-60
2021/03/18 09:21:57;;;;;;;123.80;56.13;;;4.70;99.90;;;;;;5105290;28;20046;-62
2021/03/18 09:24:32;;;;;;;129.93;57.58;;;4.70;99.90;;;;;;5093946;28;20024;-61
2021/03/18 09:27:08;;;;;;;133.15;56.17;;;4.70;99.90;;;;;;5094847;28;20020;-62
2021/03/18 09:29:34;;;;;;;121.00;55.75;;;4.70;99.90;;;;;;5105744;27;20068;-60
2021/03/18 09:32:05;;;;;;;129.50;55.53;;;4.70;99.90;;;;;;5102933;27;20032;-62
2021/03/18 09:34:34;;;;;;;136.60;56.65;;;4.70;99.90;;;;;;5101223;28;20028;-62
2021/03/18 09:37:00;;;;;;;129.38;57.25;;;4.70;99.90;;;;;;5102029;27;20545;-60
2021/03/18 09:39:25;;;;;;;128.63;59.97;;;4.70;99.90;;;;;;5106389;27;20157;-62
2021/03/18 09:41:51;;;;;;;125.90;56.80;;;4.60;99.90;;;;;;5110628;27;20322;-61
2021/03/18 09:44:20;;;;;;;122.15;57.05;;;4.80;99.90;;;;;;5104450;27;20087;-62
2021/03/18 09:46:49;;;;;;;127.40;58.97;;;4.80;99.90;;;;;;5104574;28;20047;-61
2021/03/18 09:49:14;;;;;;;125.43;56.50;;;5.00;99.90;;;;;;5108177;27;20153;-62
2021/03/18 09:51:43;;;;;;;119.47;53.85;;;5.10;99.90;;;;;;5109695;27;20142;-62
2021/03/18 09:54:12;;;;;;;122.10;53.25;;;5.20;99.90;;;;;;5103165;27;20144;-61
2021/03/18 09:56:41;;;;;;;125.50;56.70;;;5.30;99.90;;;;;;5105706;28;20387;-60
2021/03/18 09:59:08;;;;;;;112.60;52.60;;;5.30;99.90;;;;;;5104329;28;20035;-61
2021/03/18 10:01:34;;;;;;;114.18;50.78;;;5.30;99.90;;;;;;5105918;28;20176;-61
2021/03/18 10:04:05;;;;;;;118.88;54.92;;;5.30;99.90;;;;;;5101755;28;20080;-62
2021/03/18 10:06:36;;;;;;;120.25;55.53;;;5.30;99.90;;;;;;5106552;28;20377;-60
2021/03/18 10:09:31;;;;;;;119.35;53.63;;;5.20;99.90;;;;;;5103446;28;20345;-57
2021/03/18 10:12:01;;;;;;;;;;;5.20;99.90;;;;;;5101631;28;20034;-61
2021/03/18 10:14:34;;;;;;;119.93;52.85;;;5.30;99.90;;;;;;5094545;28;20055;-56
2021/03/18 10:17:02;;;;;;;127.28;55.95;;;5.50;99.90;;;;;;5101771;27;20039;-56
2021/03/18 10:19:31;;;;;;;120.15;52.40;;;5.50;99.90;;;;;;5092364;28;20401;-54
2021/03/18 10:22:00;;;;;;;110.65;51.38;;;5.60;99.90;;;;;;5103336;28;20016;-56
2021/03/18 10:24:25;;;;;;;113.72;51.60;;;5.60;99.90;;;;;;5100108;27;20295;-55
2021/03/18 10:26:51;;;;;;;109.82;49.47;;;5.80;99.90;;;;;;5099852;28;20036;-57
2021/03/18 10:29:16;;;;;;;116.72;51.55;;;6.00;99.90;;;;;;5105775;27;20062;-55
2021/03/18 10:31:42;;;;;;;103.35;49.72;;;5.90;99.90;;;;;;5101759;27;20087;-56
2021/03/18 10:34:22;;;;;;;113.88;49.33;;;5.80;99.90;;;;;;5100628;27;20496;-56
2021/03/18 10:36:48;;;;;;;95.88;47.70;;;6.10;99.90;;;;;;5094013;27;20020;-56
2021/03/18 10:39:13;;;;;;;97.15;44.58;;;6.30;99.90;;;;;;5095623;28;20382;-55
2021/03/18 10:41:52;;;;;;;89.75;44.58;;;6.50;99.90;;;;;;5105767;27;20658;-53
2021/03/18 10:44:19;;;;;;;81.50;38.78;;;6.30;99.90;;;;;;5091174;28;20027;-56
2021/03/18 10:46:45;;;;;;;75.38;36.40;;;6.30;99.90;;;;;;5097247;27;20023;-55
2021/03/18 10:49:12;;;;;;;72.10;35.42;;;6.30;99.90;;;;;;5106770;28;20031;-57
2021/03/18 10:51:51;;;;;;;75.45;35.08;;;6.50;99.90;;;;;;5107003;27;20107;-55
2021/03/18 10:54:22;;;;;;;81.07;34.72;;;6.50;99.90;;;;;;5097438;28;20106;-55
2021/03/18 10:56:51;;;;;;;70.30;32.88;;;6.60;99.90;;;;;;5105556;27;20035;-55
2021/03/18 10:59:21;;;;;;;73.10;33.50;;;6.80;99.90;;;;;;5102068;27;20094;-56
2021/03/18 11:01:48;;;;;;;65.82;31.88;;;7.20;99.90;;;;;;5106050;27;20509;-55
2021/03/18 11:04:14;;;;;;;56.92;30.55;;;7.50;99.90;;;;;;5098478;27;20036;-56
2021/03/18 11:06:51;;;;;;;48.05;24.00;;;7.50;99.90;;;;;;5095962;27;20047;-55
2021/03/18 11:09:18;;;;;;;34.45;18.63;;;7.40;99.90;;;;;;5102860;27;20072;-57
2021/03/18 11:11:55;;;;;;;31.27;17.48;;;7.40;99.90;;;;;;5106693;27;20480;-54
2021/03/18 11:14:20;;;;;;;43.08;17.75;;;7.10;99.90;;;;;;5101146;27;20114;-54
2021/03/18 11:16:46;;;;;;;36.33;19.23;;;7.20;99.90;;;;;;5097109;27;20111;-57
2021/03/18 11:19:21;;;;;;;35.65;19.45;;;7.30;99.90;;;;;;5102104;28;20036;-54
2021/03/18 11:21:46;;;;;;;37.85;18.35;;;7.50;99.90;;;;;;5093701;27;20143;-51
2021/03/18 11:24:17;;;;;;;40.20;18.67;;;7.30;99.90;;;;;;5107513;27;20525;-54
2021/03/18 11:26:54;;;;;;;33.70;15.88;;;7.40;99.90;;;;;;5102013;27;20028;-56
2021/03/18 11:29:24;;;;;;;35.55;15.85;;;7.60;99.90;;;;;;5096389;27;20032;-57
2021/03/18 11:31:56;;;;;;;36.10;14.25;;;8.00;99.90;;;;;;5100815;28;20038;-55
2021/03/18 11:34:24;;;;;;;23.30;14.05;;;8.00;99.90;;;;;;5098597;28;20066;-58
2021/03/18 11:36:53;;;;;;;26.50;14.35;;;8.20;99.90;;;;;;5096958;28;20393;-57
2021/03/18 11:39:20;;;;;;;32.25;13.85;;;8.20;99.90;;;;;;5102942;27;20091;-56
2021/03/18 11:41:46;;;;;;;23.17;12.77;;;8.10;99.90;;;;;;5096887;27;20024;-57
2021/03/18 11:44:14;;;;;;;24.77;13.45;;;8.10;99.90;;;;;;5095506;27;20031;-57
2021/03/18 11:46:40;;;;;;;34.15;15.20;;;8.20;99.90;;;;;;5096032;28;20020;-57
2021/03/18 11:49:09;;;;;;;18.60;9.75;;;8.20;99.90;;;;;;5099448;28;20031;-58
2021/03/18 11:51:35;;;;;;;18.77;9.82;;;8.10;99.90;;;;;;5104739;28;20035;-54
2021/03/18 11:54:00;;;;;;;16.55;9.02;;;8.20;99.90;;;;;;5098723;27;20046;-56
2021/03/18 11:56:26;;;;;;;22.42;9.55;;;8.20;99.90;;;;;;5102047;28;20610;-58
2021/03/18 11:58:52;;;;;;;24.75;11.02;;;8.00;99.90;;;;;;5104023;28;20407;-57
2021/03/18 12:01:18;;;;;;;21.10;8.55;;;8.00;99.90;;;;;;5095676;27;20047;-56
2021/03/18 12:03:44;;;;;;;22.90;10.05;;;8.20;99.90;;;;;;5105203;27;20027;-56
2021/03/18 12:06:10;;;;;;;25.15;8.85;;;8.40;99.90;;;;;;5098699;28;20054;-57
2021/03/18 12:08:36;;;;;;;25.17;8.90;;;8.40;99.90;;;;;;5098781;28;20039;-56
2021/03/18 12:11:03;;;;;;;19.77;8.82;;;8.10;99.90;;;;;;5094408;28;20094;-56
2021/03/18 12:13:29;;;;;;;19.88;9.77;;;8.20;99.90;;;;;;5101065;27;20304;-55
2021/03/18 12:15:54;;;;;;;15.20;7.20;;;8.10;99.90;;;;;;5093763;27;20051;-56
2021/03/18 12:18:21;;;;;;;12.15;5.82;;;8.30;99.90;;;;;;5100380;27;20049;-55
2021/03/18 12:20:47;;;;;;;10.82;6.00;;;8.30;99.90;;;;;;5101493;27;20024;-56
2021/03/18 12:23:13;;;;;;;16.27;5.85;;;8.30;99.90;;;;;;5108494;28;20037;-54
2021/03/18 12:25:38;;;;;;;11.15;5.50;;;8.50;99.90;;;;;;5113652;27;20070;-53
2021/03/18 12:28:04;;;;;;;10.10;5.13;;;8.60;99.90;;;;;;5109781;27;20032;-57
2021/03/18 12:30:30;;;;;;;10.40;4.68;;;8.60;99.90;;;;;;5104492;28;20024;-56
2021/03/18 12:32:56;;;;;;;8.10;3.97;;;8.50;99.90;;;;;;5103837;27;20058;-57
2021/03/18 12:35:22;;;;;;;25.02;5.45;;;8.30;99.90;;;;;;5104929;28;20111;-57
2021/03/18 12:37:51;;;;;;;12.73;4.80;;;8.20;99.90;;;;;;5095021;28;20032;-57
2021/03/18 12:40:19;;;;;;;14.48;6.70;;;8.00;99.90;;;;;;5106818;28;20058;-56
2021/03/18 12:42:44;;;;;;;8.88;4.93;;;8.10;99.90;;;;;;5110252;27;20034;-56
2021/03/18 12:45:14;;;;;;;15.25;5.75;;;8.10;99.90;;;;;;5102924;28;20085;-57
2021/03/18 12:47:40;;;;;;;10.70;5.03;;;8.10;99.90;;;;;;5102823;28;20031;-57